GW0280 Weather Reports


time (UTC)temp
F
wind
direction
speed
knots
gust
knots
rain 1hr
in
rain 24hr
in
rain mn
in
humidity
%
barometer
mb
20260505180049 81 212 9.6 22.6 0.00 0.00 0.00 39 1011.6
20260505174551 81 161 7.8 16.5 0.00 0.00 0.00 42 1011.4
20260505173046 80 217 7.8 14.8 0.00 0.00 0.00 43 1011.6
20260505171542 80 158 6.1 16.5 0.00 0.00 0.00 46 1012.0
20260505170100 80 240 7.0 14.8 0.00 0.00 0.00 45 1012.2
20260505164542 79 168 5.2 13.9 0.00 0.00 0.00 49 1012.4
20260505163043 78 154 5.2 13.9 0.00 0.00 0.00 47 1012.5
20260505161554 78 165 5.2 13.0 0.00 0.00 0.00 50 1012.7
20260505153053 75 221 6.1 13.0 0.00 0.00 0.00 51 1012.7
20260505151546 75 151 7.0 16.5 0.00 0.00 0.00 52 1012.8
20260505124544 67 192 4.3 11.3 0.00 0.00 0.00 63 1012.9
20260505123101 66 153 6.1 13.0 0.00 0.00 0.00 63 1012.8
20260505121539 66 200 6.1 11.3 0.00 0.00 0.00 65 1012.8
20260505120046 65 229 6.1 12.2 0.00 0.00 0.00 68 1012.7
20260505114603 64 194 4.3 11.3 0.00 0.00 0.00 69 1012.7
20260505113042 62 165 3.5 7.8 0.00 0.00 0.00 71 1012.4
20260505111555 62 170 2.6 7.8 0.00 0.00 0.00 72 1012.2
20260505101544 61 208 2.6 8.7 0.00 0.00 0.00 71 1011.9
20260505100041 62 0 2.6 9.6 0.00 0.00 0.00 70 1011.7
20260505094542 62 186 3.5 9.6 0.00 0.00 0.00 70 1011.7
20260505093046 62 186 4.3 9.6 0.00 0.00 0.00 70 1011.7
20260505091546 62 228 2.6 9.6 0.00 0.00 0.00 70 1011.6
20260505090052 62 165 2.6 9.6 0.00 0.00 0.00 69 1011.6
20260505084543 62 172 2.6 7.8 0.00 0.00 0.00 69 1011.7
20260505083047 62 169 2.6 8.7 0.00 0.00 0.00 69 1011.6
20260505081545 63 202 2.6 9.6 0.00 0.00 0.00 69 1011.7
20260505080043 63 141 1.7 11.3 0.00 0.00 0.00 69 1011.6
20260505074546 63 198 4.3 11.3 0.00 0.00 0.00 69 1011.6
20260505073042 63 194 4.3 9.6 0.00 0.00 0.00 70 1011.6
20260505071542 63 200 3.5 10.4 0.00 0.00 0.00 72 1011.4
20260505070049 63 213 3.5 7.8 0.00 0.00 0.00 72 1011.6
20260505064555 63 161 5.2 10.4 0.00 0.00 0.00 72 1011.6
20260505063050 63 180 3.5 9.6 0.00 0.00 0.00 73 1011.5
20260505061544 63 186 3.5 9.6 0.00 0.00 0.00 74 1011.4
20260505060044 63 148 3.5 8.7 0.00 0.00 0.00 74 1011.5
20260505054541 63 232 2.6 8.7 0.00 0.00 0.00 74 1011.6
20260505053058 62 163 2.6 7.8 0.00 0.00 0.00 76 1011.5
20260505051545 61 177 1.7 6.1 0.00 0.00 0.00 77 1011.5
20260505041537 60 186 0.9 5.2 0.00 0.00 0.00 76 1011.5
20260505040044 61 205 1.7 6.1 0.00 0.00 0.00 75 1011.4
20260505034545 61 186 1.7 10.4 0.00 0.00 0.00 74 1011.3
20260505033041 61 161 1.7 4.3 0.00 0.00 0.00 73 1011.4
20260505031540 62 227 1.7 5.2 0.00 0.00 0.00 71 1011.5
20260505030045 62 167 0.9 5.2 0.00 0.00 0.00 70 1011.4
20260505024547 62 0 0.9 7.8 0.00 0.00 0.00 68 1011.4
20260505023047 62 157 1.7 7.0 0.00 0.00 0.00 66 1011.3
20260505021545 63 200 1.7 6.1 0.00 0.00 0.00 65 1011.2
20260505020041 63 200 2.6 8.7 0.00 0.00 0.00 64 1011.5
20260505014543 63 186 1.7 7.8 0.00 0.00 0.00 63 1011.6
20260505013040 64 0 0.9 7.0 0.00 0.00 0.00 61 1011.4
20260505011535 64 202 0.9 6.1 0.00 0.00 0.00 59 1011.3
20260505010047 65 188 0.9 4.3 0.00 0.00 0.00 58 1011.1
20260505004544 65 0 0.0 4.3 0.00 0.00 0.00 56 1010.9
20260505003041 66 151 0.0 7.0 0.00 0.00 0.00 53 1010.9
20260505001549 67 0 1.7 7.8 0.00 0.00 0.00 51 1010.9
20260505000043 68 171 1.7 6.1 0.00 0.00 0.00 48 1011.0
20260504234552 68 165 1.7 6.1 0.00 0.00 0.00 46 1011.0
20260504233043 69 167 1.7 7.0 0.00 0.00 0.00 43 1010.8
20260504231556 70 203 2.6 12.2 0.00 0.00 0.00 41 1010.8
20260504230041 71 127 2.6 7.0 0.00 0.00 0.00 43 1010.8
20260504224540 72 153 3.5 10.4 0.00 0.00 0.00 41 1010.8
20260504223044 72 184 5.2 10.4 0.00 0.00 0.00 41 1010.8
20260504221551 73 173 3.5 20.9 0.00 0.00 0.00 42 1010.8
20260504220045 74 119 1.7 12.2 0.00 0.00 0.00 43 1010.7
20260504214543 74 296 3.5 9.6 0.00 0.00 0.00 40 1010.6
20260504213039 74 223 3.5 10.4 0.00 0.00 0.00 38 1010.7
20260504211550 74 205 6.1 16.5 0.00 0.00 0.00 36 1010.9
20260504204548 74 206 6.1 13.9 0.00 0.00 0.00 37 1011.0
20260504203047 74 184 5.2 13.0 0.00 0.00 0.00 40 1011.1
20260504201547 74 241 3.5 13.9 0.00 0.00 0.00 37 1011.1
20260504200039 74 0 1.7 18.2 0.00 0.00 0.00 39 1011.2
20260504194600 73 176 6.1 13.9 0.00 0.00 0.00 38 1011.5
20260504193044 73 225 7.0 17.4 0.00 0.00 0.00 36 1011.7
20260504191548 73 229 6.1 18.2 0.00 0.00 0.00 37 1012.1
20260504190055 73 207 4.3 20.0 0.00 0.00 0.00 37 1012.1
20260504184541 72 217 5.2 13.0 0.00 0.00 0.00 38 1012.2
20260504183035 72 179 4.3 10.4 0.00 0.00 0.00 39 1012.4
20260504181546 72 221 5.2 11.3 0.00 0.00 0.00 38 1012.7